RYR144 EYVI-EPWA
Flight info
| Callsign | RYR144 |
|---|---|
| Flight time | N/A |
| Altitude | 32000 |
| Route | UPASI DCT TUNGA DCT SUWGI M857 GERVI P851 NEPOX |
| Aircraft | B738/M-SDE2E3FGHIRWXY/LB1 |
Departure
| Time | 2026-04-30 12:39 |
|---|---|
| Airport | Vilnius International Airport (EYVI) |
Arrival
| Time | N/A |
|---|---|
| Airport | Warsaw Chopin Airport (EPWA) |
| Time | Latitude | Longitude | Altitude | Speed | Heading |
|---|---|---|---|---|---|
| 2026-04-30 12:10 | 54.64174 | 25.28496 | 643 ft | 0 kts | 358° |
| 2026-04-30 12:33 | 54.64176 | 25.28496 | 643 ft | 3 kts | 358° |
| 2026-04-30 12:33 | 54.64212 | 25.28517 | 644 ft | 8 kts | 44° |
| 2026-04-30 12:33 | 54.64222 | 25.28626 | 647 ft | 11 kts | 90° |
| 2026-04-30 12:34 | 54.64149 | 25.28695 | 646 ft | 17 kts | 172° |
| 2026-04-30 12:34 | 54.64005 | 25.28677 | 641 ft | 26 kts | 200° |
| 2026-04-30 12:34 | 54.63812 | 25.28538 | 628 ft | 34 kts | 202° |
| 2026-04-30 12:34 | 54.63570 | 25.28371 | 614 ft | 41 kts | 202° |
| 2026-04-30 12:35 | 54.63318 | 25.28198 | 609 ft | 36 kts | 200° |
| 2026-04-30 12:35 | 54.63088 | 25.28038 | 606 ft | 36 kts | 204° |
| 2026-04-30 12:35 | 54.62857 | 25.27875 | 601 ft | 36 kts | 202° |
| 2026-04-30 12:35 | 54.62630 | 25.27717 | 600 ft | 34 kts | 202° |
| 2026-04-30 12:36 | 54.62509 | 25.27670 | 603 ft | 14 kts | 151° |
| 2026-04-30 12:36 | 54.62491 | 25.27694 | 613 ft | 0 kts | 140° |
| 2026-04-30 12:36 | 54.62483 | 25.27705 | 612 ft | 4 kts | 141° |
| 2026-04-30 12:37 | 54.62431 | 25.27781 | 605 ft | 15 kts | 131° |
| 2026-04-30 12:37 | 54.62477 | 25.27928 | 603 ft | 14 kts | 20° |
| 2026-04-30 12:37 | 54.62490 | 25.27936 | 603 ft | 0 kts | 21° |
| 2026-04-30 12:38 | 54.62527 | 25.27961 | 603 ft | 25 kts | 21° |
| 2026-04-30 12:39 | 54.62907 | 25.28222 | 601 ft | 92 kts | 22° |
| 2026-04-30 12:39 | 54.63699 | 25.28772 | 631 ft | 150 kts | 21° |
| 2026-04-30 12:39 | 54.64788 | 25.29521 | 935 ft | 175 kts | 18° |
| 2026-04-30 12:39 | 54.65932 | 25.30313 | 1628 ft | 189 kts | 18° |
| 2026-04-30 12:40 | 54.67132 | 25.31145 | 2629 ft | 177 kts | 18° |
| 2026-04-30 12:40 | 54.68247 | 25.31922 | 3631 ft | 170 kts | 18° |
| 2026-04-30 12:40 | 54.69370 | 25.32696 | 4219 ft | 183 kts | 18° |
| 2026-04-30 12:40 | 54.70639 | 25.33564 | 4457 ft | 207 kts | 19° |
| 2026-04-30 12:41 | 54.72042 | 25.34528 | 4760 ft | 224 kts | 19° |
| 2026-04-30 12:41 | 54.73534 | 25.35555 | 5212 ft | 239 kts | 19° |
| 2026-04-30 12:41 | 54.75184 | 25.36315 | 5676 ft | 250 kts | 360° |
| 2026-04-30 12:41 | 54.76868 | 25.35752 | 6462 ft | 252 kts | 337° |
| 2026-04-30 12:42 | 54.78362 | 25.34143 | 7254 ft | 257 kts | 317° |
| 2026-04-30 12:42 | 54.79340 | 25.31527 | 7998 ft | 264 kts | 295° |
| 2026-04-30 12:42 | 54.79630 | 25.28337 | 8676 ft | 277 kts | 268° |
| 2026-04-30 12:42 | 54.79005 | 25.25133 | 9350 ft | 291 kts | 240° |
| 2026-04-30 12:43 | 54.77490 | 25.22726 | 9994 ft | 304 kts | 209° |
| 2026-04-30 12:43 | 54.75517 | 25.21226 | 10402 ft | 319 kts | 203° |
| 2026-04-30 12:43 | 54.73397 | 25.19801 | 10560 ft | 339 kts | 202° |
| 2026-04-30 12:43 | 54.71126 | 25.18300 | 10739 ft | 358 kts | 202° |
| 2026-04-30 12:44 | 54.68767 | 25.16720 | 11145 ft | 367 kts | 202° |
| 2026-04-30 12:44 | 54.66377 | 25.15094 | 11722 ft | 372 kts | 203° |
| 2026-04-30 12:44 | 54.63959 | 25.13427 | 12320 ft | 375 kts | 203° |
| 2026-04-30 12:44 | 54.61521 | 25.11738 | 12878 ft | 380 kts | 203° |
| 2026-04-30 12:45 | 54.59045 | 25.10018 | 13427 ft | 385 kts | 204° |
| 2026-04-30 12:45 | 54.56773 | 25.07579 | 13936 ft | 386 kts | 226° |
| 2026-04-30 12:45 | 54.55134 | 25.04033 | 14467 ft | 382 kts | 246° |
| 2026-04-30 12:45 | 54.54111 | 24.99845 | 15014 ft | 380 kts | 254° |
| 2026-04-30 12:46 | 54.53211 | 24.95548 | 15529 ft | 383 kts | 255° |
| 2026-04-30 12:46 | 54.52323 | 24.91197 | 16063 ft | 387 kts | 255° |
| 2026-04-30 12:46 | 54.51420 | 24.86798 | 16637 ft | 391 kts | 255° |
| 2026-04-30 12:46 | 54.50496 | 24.82364 | 17147 ft | 395 kts | 255° |
| 2026-04-30 12:47 | 54.49553 | 24.77893 | 17628 ft | 398 kts | 255° |
| 2026-04-30 12:47 | 54.48595 | 24.73397 | 18137 ft | 402 kts | 255° |
| 2026-04-30 12:47 | 54.47621 | 24.68859 | 18619 ft | 406 kts | 255° |
| 2026-04-30 12:47 | 54.46648 | 24.64345 | 19031 ft | 409 kts | 255° |
| 2026-04-30 12:48 | 54.45652 | 24.59737 | 19427 ft | 413 kts | 255° |
| 2026-04-30 12:48 | 54.44647 | 24.55095 | 19870 ft | 415 kts | 255° |
| 2026-04-30 12:48 | 54.43632 | 24.50422 | 20284 ft | 419 kts | 255° |
| 2026-04-30 12:48 | 54.42607 | 24.45708 | 20681 ft | 422 kts | 255° |
| 2026-04-30 12:49 | 54.41573 | 24.40963 | 21067 ft | 426 kts | 255° |
| 2026-04-30 12:49 | 54.40530 | 24.36189 | 21463 ft | 429 kts | 255° |
| 2026-04-30 12:49 | 54.39478 | 24.31384 | 21857 ft | 432 kts | 255° |
| 2026-04-30 12:49 | 54.38412 | 24.26529 | 22252 ft | 435 kts | 255° |
| 2026-04-30 12:50 | 54.37273 | 24.21402 | 22644 ft | 438 kts | 255° |
| 2026-04-30 12:50 | 54.19279 | 23.42576 | 26086 ft | 475 kts | 255° |
| 2026-04-30 12:50 | 53.94578 | 22.39062 | 29668 ft | 510 kts | 253° |
| 2026-04-30 12:50 | 53.63585 | 21.32088 | 31162 ft | 518 kts | 245° |
| 2026-04-30 12:51 | 53.25505 | 20.35523 | 23969 ft | 433 kts | 235° |